Terminal Aerodrome Forecast
Issued by NWS Buffalo, NY

Home | Current Version | Previous Version | Text Only | Print | Product List | Glossary On
Versions: 1 2 3 4 5 6 7 8 9 10 11 12 13 14 15 16 17 18 19 20 21 22 23 24 25
995
FTUS41 KBUF 221136
TAFROC
TAF
KROC 221136Z 2212/2312 VRB03KT P6SM FEW080 BKN250
     FM221500 20005KT P6SM BKN045
     FM221900 25006KT P6SM SCT030
     FM230500 19007KT P6SM SCT200
     FM230800 20008KT 2SM BR BKN030 BKN200=

USA.gov is the U.S. government's official web portal to all federal, state and local government web resources and services.